sensor_id;sensor_type;location;lat;lon;timestamp;pressure;altitude;pressure_sealevel;temperature;humidity
44751;BME280;30477;48.224;11.470;2022-12-19T00:02:03;97097.88;;;-5.43;78.43
44751;BME280;30477;48.224;11.470;2022-12-19T00:04:29;97092.78;;;-5.40;78.83
44751;BME280;30477;48.224;11.470;2022-12-19T00:06:57;97082.75;;;-5.43;78.37
44751;BME280;30477;48.224;11.470;2022-12-19T00:09:23;97084.41;;;-5.42;78.54
44751;BME280;30477;48.224;11.470;2022-12-19T00:11:49;97070.94;;;-5.41;78.79
44751;BME280;30477;48.224;11.470;2022-12-19T00:14:14;97056.63;;;-5.37;78.46
44751;BME280;30477;48.224;11.470;2022-12-19T00:16:40;97056.69;;;-5.43;78.34
44751;BME280;30477;48.224;11.470;2022-12-19T00:19:05;97052.44;;;-5.40;78.41
44751;BME280;30477;48.224;11.470;2022-12-19T00:21:33;97044.84;;;-5.38;78.35
44751;BME280;30477;48.224;11.470;2022-12-19T00:23:59;97033.94;;;-5.42;78.09
44751;BME280;30477;48.224;11.470;2022-12-19T00:26:30;97057.53;;;-5.43;78.04
44751;BME280;30477;48.224;11.470;2022-12-19T00:29:03;97064.13;;;-5.33;78.55
44751;BME280;30477;48.224;11.470;2022-12-19T00:31:31;97048.09;;;-5.30;78.14
44751;BME280;30477;48.224;11.470;2022-12-19T00:33:57;97059.09;;;-5.36;78.07
44751;BME280;30477;48.224;11.470;2022-12-19T00:36:26;97065.84;;;-5.38;78.12
44751;BME280;30477;48.224;11.470;2022-12-19T00:38:53;97085.13;;;-5.29;78.36
44751;BME280;30477;48.224;11.470;2022-12-19T00:41:21;97085.81;;;-5.16;78.33
44751;BME280;30477;48.224;11.470;2022-12-19T00:43:58;97079.88;;;-5.14;78.25
44751;BME280;30477;48.224;11.470;2022-12-19T00:46:25;97065.47;;;-5.07;78.19
44751;BME280;30477;48.224;11.470;2022-12-19T00:48:51;97065.47;;;-5.07;78.30
44751;BME280;30477;48.224;11.470;2022-12-19T00:51:19;97063.84;;;-5.11;78.07
44751;BME280;30477;48.224;11.470;2022-12-19T00:53:46;97062.19;;;-5.12;77.91
44751;BME280;30477;48.224;11.470;2022-12-19T00:56:16;97057.97;;;-5.10;77.83
44751;BME280;30477;48.224;11.470;2022-12-19T00:58:42;97049.59;;;-5.14;77.98
44751;BME280;30477;48.224;11.470;2022-12-19T01:01:13;97049.56;;;-5.12;77.82
44751;BME280;30477;48.224;11.470;2022-12-19T01:03:39;97031.81;;;-5.06;77.85
44751;BME280;30477;48.224;11.470;2022-12-19T01:06:05;97020.19;;;-5.16;77.62
44751;BME280;30477;48.224;11.470;2022-12-19T01:08:31;97013.50;;;-5.20;77.63
44751;BME280;30477;48.224;11.470;2022-12-19T01:10:57;97026.28;;;-5.33;77.56
44751;BME280;30477;48.224;11.470;2022-12-19T01:13:24;97020.44;;;-5.38;77.54
44751;BME280;30477;48.224;11.470;2022-12-19T01:15:49;97017.91;;;-5.38;77.47
44751;BME280;30477;48.224;11.470;2022-12-19T01:18:15;97030.53;;;-5.38;77.39
44751;BME280;30477;48.224;11.470;2022-12-19T01:20:42;97032.31;;;-5.46;77.62
44751;BME280;30477;48.224;11.470;2022-12-19T01:23:09;97036.44;;;-5.37;77.85
44751;BME280;30477;48.224;11.470;2022-12-19T01:25:34;97047.22;;;-5.27;77.79
44751;BME280;30477;48.224;11.470;2022-12-19T01:28:00;97053.97;;;-5.26;77.58
44751;BME280;30477;48.224;11.470;2022-12-19T01:30:26;97048.94;;;-5.28;77.55
44751;BME280;30477;48.224;11.470;2022-12-19T01:32:52;97059.81;;;-5.24;77.67
44751;BME280;30477;48.224;11.470;2022-12-19T01:35:17;97069.84;;;-5.18;77.60
44751;BME280;30477;48.224;11.470;2022-12-19T01:37:43;97073.94;;;-5.10;77.71
44751;BME280;30477;48.224;11.470;2022-12-19T01:40:10;97077.25;;;-5.06;77.52
44751;BME280;30477;48.224;11.470;2022-12-19T01:42:36;97079.81;;;-5.07;77.60
44751;BME280;30477;48.224;11.470;2022-12-19T01:47:40;97079.88;;;-5.14;77.60
44751;BME280;30477;48.224;11.470;2022-12-19T01:50:17;97073.88;;;-5.05;77.66
44751;BME280;30477;48.224;11.470;2022-12-19T01:52:43;97073.84;;;-5.03;77.53
44751;BME280;30477;48.224;11.470;2022-12-19T01:55:10;97082.25;;;-5.03;77.58
44751;BME280;30477;48.224;11.470;2022-12-19T01:57:36;97085.53;;;-4.98;77.57
44751;BME280;30477;48.224;11.470;2022-12-19T02:00:03;97082.31;;;-5.06;77.28
44751;BME280;30477;48.224;11.470;2022-12-19T02:02:34;97084.84;;;-5.06;77.42
44751;BME280;30477;48.224;11.470;2022-12-19T02:05:03;97077.34;;;-5.14;77.37
44751;BME280;30477;48.224;11.470;2022-12-19T02:07:29;97089.91;;;-5.07;77.35
44751;BME280;30477;48.224;11.470;2022-12-19T02:09:56;97095.75;;;-5.04;77.47
44751;BME280;30477;48.224;11.470;2022-12-19T02:12:25;97094.94;;;-5.06;77.23
44751;BME280;30477;48.224;11.470;2022-12-19T02:14:54;97089.06;;;-5.08;77.15
44751;BME280;30477;48.224;11.470;2022-12-19T02:25:59;97091.81;;;-5.26;76.89
44751;BME280;30477;48.224;11.470;2022-12-19T02:31:08;97089.31;;;-5.30;76.71
44751;BME280;30477;48.224;11.470;2022-12-19T02:33:54;97087.59;;;-5.24;76.92
44751;BME280;30477;48.224;11.470;2022-12-19T02:36:30;97082.56;;;-5.27;76.67
44751;BME280;30477;48.224;11.470;2022-12-19T02:39:08;97075.88;;;-5.32;76.73
44751;BME280;30477;48.224;11.470;2022-12-19T02:41:43;97102.03;;;-5.39;76.54
44751;BME280;30477;48.224;11.470;2022-12-19T02:44:32;97102.94;;;-5.43;76.47
44751;BME280;30477;48.224;11.470;2022-12-19T02:47:01;97102.06;;;-5.40;76.65
44751;BME280;30477;48.224;11.470;2022-12-19T02:49:35;97091.00;;;-5.32;76.44
44751;BME280;30477;48.224;11.470;2022-12-19T02:52:53;97080.00;;;-5.24;76.50
44751;BME280;30477;48.224;11.470;2022-12-19T02:54:56;97090.84;;;-5.16;76.69
44751;BME280;30477;48.224;11.470;2022-12-19T03:00:27;97113.72;;;-5.32;76.73
44751;BME280;30477;48.224;11.470;2022-12-19T03:08:23;97111.06;;;-5.19;76.20
44751;BME280;30477;48.224;11.470;2022-12-19T03:11:19;97113.53;;;-5.15;76.42
44751;BME280;30477;48.224;11.470;2022-12-19T03:13:53;97109.28;;;-5.11;76.35
44751;BME280;30477;48.224;11.470;2022-12-19T03:16:21;97110.91;;;-5.07;76.34
44751;BME280;30477;48.224;11.470;2022-12-19T03:18:47;97109.22;;;-5.05;76.21
44751;BME280;30477;48.224;11.470;2022-12-19T03:21:18;97110.84;;;-4.99;76.30
44751;BME280;30477;48.224;11.470;2022-12-19T03:23:44;97108.53;;;-5.18;75.62
44751;BME280;30477;48.224;11.470;2022-12-19T03:26:19;97109.38;;;-5.19;76.13
44751;BME280;30477;48.224;11.470;2022-12-19T03:31:23;97108.38;;;-5.05;76.10
44751;BME280;30477;48.224;11.470;2022-12-19T03:33:55;97119.22;;;-4.99;76.22
44751;BME280;30477;48.224;11.470;2022-12-19T03:36:35;97122.66;;;-5.03;76.05
44751;BME280;30477;48.224;11.470;2022-12-19T03:39:05;97105.94;;;-5.13;75.93
44751;BME280;30477;48.224;11.470;2022-12-19T03:41:33;97124.50;;;-5.17;75.90
44751;BME280;30477;48.224;11.470;2022-12-19T03:44:19;97124.47;;;-5.14;76.11
44751;BME280;30477;48.224;11.470;2022-12-19T03:46:59;97117.72;;;-5.12;76.04
44751;BME280;30477;48.224;11.470;2022-12-19T03:49:28;97100.88;;;-5.10;75.87
44751;BME280;30477;48.224;11.470;2022-12-19T03:52:02;97105.19;;;-5.20;75.71
44751;BME280;30477;48.224;11.470;2022-12-19T03:54:38;97075.78;;;-5.22;75.81
44751;BME280;30477;48.224;11.470;2022-12-19T03:57:13;97122.03;;;-5.22;76.22
44751;BME280;30477;48.224;11.470;2022-12-19T03:59:48;97093.41;;;-5.21;76.18
44751;BME280;30477;48.224;11.470;2022-12-19T04:02:17;97087.59;;;-5.24;76.05
44751;BME280;30477;48.224;11.470;2022-12-19T04:04:46;97086.72;;;-5.23;76.22
44751;BME280;30477;48.224;11.470;2022-12-19T04:07:15;97054.91;;;-5.35;76.46
44751;BME280;30477;48.224;11.470;2022-12-19T04:09:42;97175.97;;;-5.32;76.60
44751;BME280;30477;48.224;11.470;2022-12-19T04:12:13;97113.75;;;-5.33;76.47
44751;BME280;30477;48.224;11.470;2022-12-19T04:14:40;97173.38;;;-5.24;76.75
44751;BME280;30477;48.224;11.470;2022-12-19T04:20:08;97104.22;;;-5.11;76.82
44751;BME280;30477;48.224;11.470;2022-12-19T04:22:42;97137.75;;;-5.00;77.11
44751;BME280;30477;48.224;11.470;2022-12-19T04:25:17;97136.00;;;-4.95;77.03
44751;BME280;30477;48.224;11.470;2022-12-19T04:27:50;97178.06;;;-4.94;76.95
44751;BME280;30477;48.224;11.470;2022-12-19T04:30:17;97151.94;;;-4.90;76.92
44751;BME280;30477;48.224;11.470;2022-12-19T04:32:44;97125.69;;;-4.79;76.83
44751;BME280;30477;48.224;11.470;2022-12-19T04:35:10;97144.25;;;-4.80;76.95
44751;BME280;30477;48.224;11.470;2022-12-19T04:37:36;97127.38;;;-4.78;76.93
44751;BME280;30477;48.224;11.470;2022-12-19T04:40:02;97100.34;;;-4.70;77.03
44751;BME280;30477;48.224;11.470;2022-12-19T04:42:28;97094.41;;;-4.69;77.07
44751;BME280;30477;48.224;11.470;2022-12-19T04:44:53;97121.22;;;-4.60;77.11
44751;BME280;30477;48.224;11.470;2022-12-19T04:47:19;97095.16;;;-4.61;76.92
44751;BME280;30477;48.224;11.470;2022-12-19T04:49:44;97093.53;;;-4.66;76.98
44751;BME280;30477;48.224;11.470;2022-12-19T04:52:09;97098.56;;;-4.65;77.21
44751;BME280;30477;48.224;11.470;2022-12-19T04:54:35;97107.88;;;-4.67;77.11
44751;BME280;30477;48.224;11.470;2022-12-19T04:57:00;97118.69;;;-4.59;77.00
44751;BME280;30477;48.224;11.470;2022-12-19T04:59:25;97095.97;;;-4.59;77.17
44751;BME280;30477;48.224;11.470;2022-12-19T05:01:51;97095.16;;;-4.61;77.16
44751;BME280;30477;48.224;11.470;2022-12-19T05:04:16;97101.88;;;-4.60;77.18
44751;BME280;30477;48.224;11.470;2022-12-19T05:06:41;97101.81;;;-4.57;77.19
44751;BME280;30477;48.224;11.470;2022-12-19T05:09:09;97124.50;;;-4.52;77.24
44751;BME280;30477;48.224;11.470;2022-12-19T05:11:34;97104.25;;;-4.49;77.19
44751;BME280;30477;48.224;11.470;2022-12-19T05:14:00;97110.88;;;-4.43;77.21
44751;BME280;30477;48.224;11.470;2022-12-19T05:16:25;97105.00;;;-4.42;77.16
44751;BME280;30477;48.224;11.470;2022-12-19T05:18:52;97121.88;;;-4.47;76.99
44751;BME280;30477;48.224;11.470;2022-12-19T05:21:17;97110.03;;;-4.42;77.18
44751;BME280;30477;48.224;11.470;2022-12-19T05:23:43;97130.25;;;-4.42;77.19
44751;BME280;30477;48.224;11.470;2022-12-19T05:26:09;97132.66;;;-4.35;76.99
44751;BME280;30477;48.224;11.470;2022-12-19T05:28:35;97130.97;;;-4.34;77.05
44751;BME280;30477;48.224;11.470;2022-12-19T05:31:02;97122.53;;;-4.33;77.01
44751;BME280;30477;48.224;11.470;2022-12-19T05:33:28;97118.28;;;-4.31;77.27
44751;BME280;30477;48.224;11.470;2022-12-19T05:35:53;97120.72;;;-4.25;77.10
44751;BME280;30477;48.224;11.470;2022-12-19T05:38:18;97119.81;;;-4.22;77.24
44751;BME280;30477;48.224;11.470;2022-12-19T05:40:44;97114.75;;;-4.19;77.04
44751;BME280;30477;48.224;11.470;2022-12-19T05:43:09;97120.69;;;-4.23;76.92
44751;BME280;30477;48.224;11.470;2022-12-19T05:45:34;97118.91;;;-4.17;77.07
44751;BME280;30477;48.224;11.470;2022-12-19T05:48:00;97115.66;;;-4.23;76.84
44751;BME280;30477;48.224;11.470;2022-12-19T05:50:25;97117.28;;;-4.19;76.97
44751;BME280;30477;48.224;11.470;2022-12-19T05:52:50;97109.69;;;-4.21;76.98
44751;BME280;30477;48.224;11.470;2022-12-19T05:55:16;97105.47;;;-4.20;77.00
44751;BME280;30477;48.224;11.470;2022-12-19T05:57:41;97104.72;;;-4.24;76.84
44751;BME280;30477;48.224;11.470;2022-12-19T06:00:07;97096.50;;;-4.38;76.77
44751;BME280;30477;48.224;11.470;2022-12-19T06:02:33;97095.63;;;-4.36;77.09
44751;BME280;30477;48.224;11.470;2022-12-19T06:04:58;97106.53;;;-4.32;77.31
44751;BME280;30477;48.224;11.470;2022-12-19T06:07:24;97100.47;;;-4.23;77.25
44751;BME280;30477;48.224;11.470;2022-12-19T06:09:50;97102.91;;;-4.17;76.99
44751;BME280;30477;48.224;11.470;2022-12-19T06:12:15;97098.69;;;-4.17;76.91
44751;BME280;30477;48.224;11.470;2022-12-19T06:14:40;97098.69;;;-4.18;77.09
44751;BME280;30477;48.224;11.470;2022-12-19T06:17:06;97117.94;;;-4.10;77.09
44751;BME280;30477;48.224;11.470;2022-12-19T06:19:32;97113.75;;;-4.09;77.06
44751;BME280;30477;48.224;11.470;2022-12-19T06:21:58;97128.03;;;-4.06;76.85
44751;BME280;30477;48.224;11.470;2022-12-19T06:24:24;97126.19;;;-3.98;77.19
44751;BME280;30477;48.224;11.470;2022-12-19T06:26:49;97117.75;;;-3.97;76.93
44751;BME280;30477;48.224;11.470;2022-12-19T06:29:15;97120.19;;;-3.93;76.86
44751;BME280;30477;48.224;11.470;2022-12-19T06:31:40;97105.09;;;-3.97;76.73
44751;BME280;30477;48.224;11.470;2022-12-19T06:34:07;97109.41;;;-4.02;76.76
44751;BME280;30477;48.224;11.470;2022-12-19T06:36:33;97111.91;;;-4.01;76.95
44751;BME280;30477;48.224;11.470;2022-12-19T06:38:58;97109.28;;;-3.95;77.08
44751;BME280;30477;48.224;11.470;2022-12-19T06:41:24;97113.53;;;-3.97;77.03
44751;BME280;30477;48.224;11.470;2022-12-19T06:44:10;97106.63;;;-3.87;77.02
44751;BME280;30477;48.224;11.470;2022-12-19T06:46:36;97104.06;;;-3.84;77.00
44751;BME280;30477;48.224;11.470;2022-12-19T06:49:02;97093.97;;;-3.87;76.95
44751;BME280;30477;48.224;11.470;2022-12-19T06:51:28;97098.13;;;-3.84;76.99
44751;BME280;30477;48.224;11.470;2022-12-19T06:53:53;97109.00;;;-3.78;77.20
44751;BME280;30477;48.224;11.470;2022-12-19T06:56:19;97103.97;;;-3.81;76.99
44751;BME280;30477;48.224;11.470;2022-12-19T06:58:45;97110.84;;;-3.88;77.17
44751;BME280;30477;48.224;11.470;2022-12-19T07:04:04;97112.59;;;-3.91;77.35
44751;BME280;30477;48.224;11.470;2022-12-19T07:06:30;97108.34;;;-3.91;77.07
44751;BME280;30477;48.224;11.470;2022-12-19T07:08:56;97099.81;;;-3.83;77.40
44751;BME280;30477;48.224;11.470;2022-12-19T07:11:21;97106.53;;;-3.82;77.49
44751;BME280;30477;48.224;11.470;2022-12-19T07:13:47;97105.66;;;-3.80;77.36
44751;BME280;30477;48.224;11.470;2022-12-19T07:16:12;97110.72;;;-3.80;77.36
44751;BME280;30477;48.224;11.470;2022-12-19T07:18:38;97113.22;;;-3.78;77.45
44751;BME280;30477;48.224;11.470;2022-12-19T07:21:05;97117.34;;;-3.74;77.59
44751;BME280;30477;48.224;11.470;2022-12-19T07:23:33;97112.22;;;-3.70;77.57
44751;BME280;30477;48.224;11.470;2022-12-19T07:25:59;97117.22;;;-3.67;77.48
44751;BME280;30477;48.224;11.470;2022-12-19T07:28:25;97124.84;;;-3.68;77.47
44751;BME280;30477;48.224;11.470;2022-12-19T07:30:51;97122.28;;;-3.67;77.45
44751;BME280;30477;48.224;11.470;2022-12-19T07:33:16;97125.56;;;-3.61;77.73
44751;BME280;30477;48.224;11.470;2022-12-19T07:35:41;97130.56;;;-3.58;77.88
44751;BME280;30477;48.224;11.470;2022-12-19T07:38:07;97127.88;;;-3.49;77.80
44751;BME280;30477;48.224;11.470;2022-12-19T07:40:33;97109.31;;;-3.50;77.59
44751;BME280;30477;48.224;11.470;2022-12-19T07:42:59;97111.94;;;-3.54;77.80
44751;BME280;30477;48.224;11.470;2022-12-19T07:45:25;97103.38;;;-3.47;77.84
44751;BME280;30477;48.224;11.470;2022-12-19T07:47:51;97124.44;;;-3.47;77.64
44751;BME280;30477;48.224;11.470;2022-12-19T07:50:16;97119.34;;;-3.45;78.21
44751;BME280;30477;48.224;11.470;2022-12-19T07:52:42;97111.63;;;-3.37;77.71
44751;BME280;30477;48.224;11.470;2022-12-19T07:55:07;97105.75;;;-3.38;77.58
44751;BME280;30477;48.224;11.470;2022-12-19T07:57:33;97104.03;;;-3.36;77.93
44751;BME280;30477;48.224;11.470;2022-12-19T07:59:58;97119.94;;;-3.31;78.04
44751;BME280;30477;48.224;11.470;2022-12-19T08:02:23;97114.81;;;-3.28;77.91
44751;BME280;30477;48.224;11.470;2022-12-19T08:04:49;97112.13;;;-3.20;78.06
44751;BME280;30477;48.224;11.470;2022-12-19T08:07:15;97106.16;;;-3.17;77.94
44751;BME280;30477;48.224;11.470;2022-12-19T08:09:40;97113.84;;;-3.22;77.77
44751;BME280;30477;48.224;11.470;2022-12-19T08:12:05;97106.16;;;-3.16;78.04
44751;BME280;30477;48.224;11.470;2022-12-19T08:14:31;97099.31;;;-3.11;78.08
44751;BME280;30477;48.224;11.470;2022-12-19T08:16:56;97100.84;;;-3.05;78.25
44751;BME280;30477;48.224;11.470;2022-12-19T08:19:22;97108.28;;;-2.96;78.04
44751;BME280;30477;48.224;11.470;2022-12-19T08:21:47;97098.97;;;-2.94;78.29
44751;BME280;30477;48.224;11.470;2022-12-19T08:24:13;97096.31;;;-2.88;78.30
44751;BME280;30477;48.224;11.470;2022-12-19T08:26:38;97089.50;;;-2.86;78.01
44751;BME280;30477;48.224;11.470;2022-12-19T08:29:05;97085.22;;;-2.83;78.29
44751;BME280;30477;48.224;11.470;2022-12-19T08:31:31;97080.06;;;-2.79;78.46
44751;BME280;30477;48.224;11.470;2022-12-19T08:33:57;97083.16;;;-2.66;78.67
44751;BME280;30477;48.224;11.470;2022-12-19T08:36:23;97080.25;;;-2.51;79.09
44751;BME280;30477;48.224;11.470;2022-12-19T08:38:48;97085.03;;;-2.37;78.62
44751;BME280;30477;48.224;11.470;2022-12-19T08:41:15;97095.78;;;-2.27;78.61
44751;BME280;30477;48.224;11.470;2022-12-19T08:43:41;97092.97;;;-2.16;78.73
44751;BME280;30477;48.224;11.470;2022-12-19T08:46:07;97091.84;;;-2.05;78.65
44751;BME280;30477;48.224;11.470;2022-12-19T08:48:34;97077.38;;;-1.99;78.54
44751;BME280;30477;48.224;11.470;2022-12-19T08:51:05;97073.19;;;-2.02;78.42
44751;BME280;30477;48.224;11.470;2022-12-19T08:53:35;97068.88;;;-1.98;78.55
44751;BME280;30477;48.224;11.470;2022-12-19T08:56:07;97053.09;;;-2.10;78.47
44751;BME280;30477;48.224;11.470;2022-12-19T08:58:33;97055.69;;;-2.13;78.25
44751;BME280;30477;48.224;11.470;2022-12-19T09:01:06;97045.69;;;-2.17;78.33
44751;BME280;30477;48.224;11.470;2022-12-19T09:03:35;97043.81;;;-2.11;78.59
44751;BME280;30477;48.224;11.470;2022-12-19T09:06:03;97035.91;;;-1.98;78.71
44751;BME280;30477;48.224;11.470;2022-12-19T09:08:29;97036.56;;;-1.92;78.64
44751;BME280;30477;48.224;11.470;2022-12-19T09:11:01;97044.06;;;-1.87;78.71
44751;BME280;30477;48.224;11.470;2022-12-19T09:13:27;97045.44;;;-1.75;78.73
44751;BME280;30477;48.224;11.470;2022-12-19T09:16:14;97043.56;;;-1.69;78.73
44751;BME280;30477;48.224;11.470;2022-12-19T09:18:40;97059.69;;;-1.70;78.50
44751;BME280;30477;48.224;11.470;2022-12-19T09:21:06;97071.44;;;-1.66;78.61
44751;BME280;30477;48.224;11.470;2022-12-19T09:23:32;97061.91;;;-1.57;78.76
44751;BME280;30477;48.224;11.470;2022-12-19T09:26:07;97063.28;;;-1.47;78.86
44751;BME280;30477;48.224;11.470;2022-12-19T09:28:33;97064.72;;;-1.37;78.79
44751;BME280;30477;48.224;11.470;2022-12-19T09:31:01;97057.19;;;-1.40;78.78
44751;BME280;30477;48.224;11.470;2022-12-19T09:33:27;97065.34;;;-1.29;78.82
44751;BME280;30477;48.224;11.470;2022-12-19T09:35:55;97060.13;;;-1.24;78.41
44751;BME280;30477;48.224;11.470;2022-12-19T09:38:22;97061.22;;;-1.33;78.38
44751;BME280;30477;48.224;11.470;2022-12-19T09:44:33;97071.03;;;-1.20;78.59
44751;BME280;30477;48.224;11.470;2022-12-19T09:47:04;97073.69;;;-1.24;78.71
44751;BME280;30477;48.224;11.470;2022-12-19T09:49:37;97062.63;;;-1.23;78.72
44751;BME280;30477;48.224;11.470;2022-12-19T09:52:14;97068.34;;;-1.16;78.81
44751;BME280;30477;48.224;11.470;2022-12-19T09:54:46;97058.03;;;-1.10;78.80
44751;BME280;30477;48.224;11.470;2022-12-19T10:00:15;97051.44;;;-1.15;78.72
44751;BME280;30477;48.224;11.470;2022-12-19T10:03:20;97051.38;;;-1.14;78.46
44751;BME280;30477;48.224;11.470;2022-12-19T10:05:51;97042.66;;;-1.05;78.74
44751;BME280;30477;48.224;11.470;2022-12-19T10:11:07;97037.63;;;-1.07;78.54
44751;BME280;30477;48.224;11.470;2022-12-19T10:14:06;97034.19;;;-1.06;78.81
44751;BME280;30477;48.224;11.470;2022-12-19T10:16:47;97041.50;;;-0.95;78.47
44751;BME280;30477;48.224;11.470;2022-12-19T10:19:35;97042.41;;;-0.96;78.65
44751;BME280;30477;48.224;11.470;2022-12-19T10:27:51;97054.09;;;-0.62;78.48
44751;BME280;30477;48.224;11.470;2022-12-19T10:30:20;97038.72;;;-0.59;78.56
44751;BME280;30477;48.224;11.470;2022-12-19T10:33:08;97024.56;;;-0.66;78.30
44751;BME280;30477;48.224;11.470;2022-12-19T10:35:44;97014.56;;;-0.72;78.21
44751;BME280;30477;48.224;11.470;2022-12-19T10:40:41;97006.88;;;-0.69;78.39
44751;BME280;30477;48.224;11.470;2022-12-19T10:43:39;96997.56;;;-0.70;78.57
44751;BME280;30477;48.224;11.470;2022-12-19T10:46:18;96992.59;;;-0.73;78.48
44751;BME280;30477;48.224;11.470;2022-12-19T10:48:48;96979.63;;;-0.66;79.05
44751;BME280;30477;48.224;11.470;2022-12-19T10:51:21;96977.25;;;-0.72;78.78
44751;BME280;30477;48.224;11.470;2022-12-19T10:53:55;96974.78;;;-0.73;79.04
44751;BME280;30477;48.224;11.470;2022-12-19T10:56:27;96981.38;;;-0.68;79.38
44751;BME280;30477;48.224;11.470;2022-12-19T10:58:55;96972.69;;;-0.60;79.37
44751;BME280;30477;48.224;11.470;2022-12-19T11:01:39;96973.16;;;-0.49;79.39
44751;BME280;30477;48.224;11.470;2022-12-19T11:04:28;96959.34;;;-0.42;79.30
44751;BME280;30477;48.224;11.470;2022-12-19T11:07:04;96964.34;;;-0.39;79.53
44751;BME280;30477;48.224;11.470;2022-12-19T11:09:40;96967.22;;;-0.23;79.52
44751;BME280;30477;48.224;11.470;2022-12-19T11:14:35;96952.22;;;-0.06;79.52
44751;BME280;30477;48.224;11.470;2022-12-19T11:17:02;96959.63;;;0.01;79.50
44751;BME280;30477;48.224;11.470;2022-12-19T11:19:36;96962.06;;;0.04;79.33
44751;BME280;30477;48.224;11.470;2022-12-19T11:22:14;96957.44;;;0.15;79.35
44751;BME280;30477;48.224;11.470;2022-12-19T11:24:43;96966.56;;;0.20;79.33
44751;BME280;30477;48.224;11.470;2022-12-19T11:27:37;96954.78;;;0.18;79.19
44751;BME280;30477;48.224;11.470;2022-12-19T11:30:27;96936.78;;;0.23;79.07
44751;BME280;30477;48.224;11.470;2022-12-19T11:33:15;96923.88;;;0.27;79.26
44751;BME280;30477;48.224;11.470;2022-12-19T11:35:48;96922.00;;;0.32;79.09
44751;BME280;30477;48.224;11.470;2022-12-19T11:38:17;96921.88;;;0.35;79.20
44751;BME280;30477;48.224;11.470;2022-12-19T11:40:52;96912.44;;;0.39;79.27
44751;BME280;30477;48.224;11.470;2022-12-19T11:43:34;96913.84;;;0.46;79.00
44751;BME280;30477;48.224;11.470;2022-12-19T11:46:16;96918.03;;;0.49;79.12
44751;BME280;30477;48.224;11.470;2022-12-19T11:48:59;96929.63;;;0.56;79.08
44751;BME280;30477;48.224;11.470;2022-12-19T11:56:42;96936.63;;;0.51;78.85
44751;BME280;30477;48.224;11.470;2022-12-19T12:01:54;96929.22;;;0.45;78.92
44751;BME280;30477;48.224;11.470;2022-12-19T12:04:37;96925.81;;;0.44;78.90
44751;BME280;30477;48.224;11.470;2022-12-19T12:07:08;96917.34;;;0.44;78.95
44751;BME280;30477;48.224;11.470;2022-12-19T12:09:35;96929.00;;;0.51;79.06
44751;BME280;30477;48.224;11.470;2022-12-19T12:12:25;96918.72;;;0.52;79.06
44751;BME280;30477;48.224;11.470;2022-12-19T12:17:46;96912.34;;;0.64;79.18
44751;BME280;30477;48.224;11.470;2022-12-19T12:23:57;96897.88;;;0.65;78.65
44751;BME280;30477;48.224;11.470;2022-12-19T12:29:34;96898.41;;;0.51;78.69
44751;BME280;30477;48.224;11.470;2022-12-19T12:32:25;96901.66;;;0.54;79.15
44751;BME280;30477;48.224;11.470;2022-12-19T12:45:42;96910.56;;;0.66;79.18
44751;BME280;30477;48.224;11.470;2022-12-19T12:48:26;96909.19;;;0.79;79.44
44751;BME280;30477;48.224;11.470;2022-12-19T12:50:54;96908.19;;;0.84;79.27
44751;BME280;30477;48.224;11.470;2022-12-19T12:53:21;96897.91;;;0.87;79.09
44751;BME280;30477;48.224;11.470;2022-12-19T12:55:49;96892.91;;;0.84;79.04
44751;BME280;30477;48.224;11.470;2022-12-19T13:01:17;96905.22;;;0.94;79.04
44751;BME280;30477;48.224;11.470;2022-12-19T13:09:25;96917.19;;;0.92;79.06
44751;BME280;30477;48.224;11.470;2022-12-19T13:15:15;96887.03;;;0.81;79.00
44751;BME280;30477;48.224;11.470;2022-12-19T13:24:59;96883.72;;;0.79;79.52
44751;BME280;30477;48.224;11.470;2022-12-19T13:32:25;96870.09;;;0.80;79.42
44751;BME280;30477;48.224;11.470;2022-12-19T13:34:56;96861.94;;;0.72;79.36
44751;BME280;30477;48.224;11.470;2022-12-19T13:37:40;96866.13;;;0.73;79.46
44751;BME280;30477;48.224;11.470;2022-12-19T13:46:00;96863.47;;;0.76;79.94
44751;BME280;30477;48.224;11.470;2022-12-19T13:48:40;96869.19;;;0.81;79.72
44751;BME280;30477;48.224;11.470;2022-12-19T13:51:09;96861.44;;;0.85;79.65
44751;BME280;30477;48.224;11.470;2022-12-19T13:53:35;96873.19;;;0.89;79.84
44751;BME280;30477;48.224;11.470;2022-12-19T13:56:04;96871.59;;;0.86;79.61
44751;BME280;30477;48.224;11.470;2022-12-19T13:58:32;96867.41;;;0.84;79.74
44751;BME280;30477;48.224;11.470;2022-12-19T14:01:14;96879.28;;;0.85;79.56
44751;BME280;30477;48.224;11.470;2022-12-19T14:03:42;96889.47;;;0.85;79.56
44751;BME280;30477;48.224;11.470;2022-12-19T14:08:45;96886.16;;;0.83;79.62
44751;BME280;30477;48.224;11.470;2022-12-19T14:11:15;96896.59;;;0.76;79.43
44751;BME280;30477;48.224;11.470;2022-12-19T14:13:50;96901.69;;;0.76;79.63
44751;BME280;30477;48.224;11.470;2022-12-19T14:16:37;96899.31;;;0.72;79.45
44751;BME280;30477;48.224;11.470;2022-12-19T14:19:02;96891.97;;;0.64;79.51
44751;BME280;30477;48.224;11.470;2022-12-19T14:21:28;96900.75;;;0.57;79.63
44751;BME280;30477;48.224;11.470;2022-12-19T14:26:34;96902.97;;;0.65;80.01
44751;BME280;30477;48.224;11.470;2022-12-19T14:29:06;96918.97;;;0.68;79.77
44751;BME280;30477;48.224;11.470;2022-12-19T14:31:37;96907.13;;;0.67;79.77
44751;BME280;30477;48.224;11.470;2022-12-19T14:34:05;96902.69;;;0.72;79.97
44751;BME280;30477;48.224;11.470;2022-12-19T14:36:31;96907.66;;;0.75;79.81
44751;BME280;30477;48.224;11.470;2022-12-19T14:38:57;96900.25;;;0.69;79.61
44751;BME280;30477;48.224;11.470;2022-12-19T14:44:12;96895.41;;;0.63;79.97
44751;BME280;30477;48.224;11.470;2022-12-19T14:46:37;96890.13;;;0.68;79.76
44751;BME280;30477;48.224;11.470;2022-12-19T14:49:22;96891.00;;;0.67;79.94
44751;BME280;30477;48.224;11.470;2022-12-19T14:51:48;96884.19;;;0.67;80.00
44751;BME280;30477;48.224;11.470;2022-12-19T14:54:21;96882.34;;;0.71;80.08
44751;BME280;30477;48.224;11.470;2022-12-19T14:59:25;96875.44;;;0.74;80.09
44751;BME280;30477;48.224;11.470;2022-12-19T15:02:14;96876.41;;;0.72;79.97
44751;BME280;30477;48.224;11.470;2022-12-19T15:04:58;96869.66;;;0.69;80.14
44751;BME280;30477;48.224;11.470;2022-12-19T15:07:27;96872.50;;;0.63;80.17